Time,TemperatureF,DewpointF,PressureIn,WindDirection,WindDirectionDegrees,WindSpeedMPH,WindSpeedGustMPH,Humidity,HourlyPrecipIn,Conditions,Clouds,dailyrainin,SoftwareType,DateUTC
2013-02-11 00:00:00,72.1,66.3,30.22,NE,52,5.0,17.0,82,0.00,,---,0.04,VWS V14.00,2013-02-11 10:00:00,
2013-02-11 00:05:00,72.1,65.9,30.22,ENE,63,6.0,9.0,81,0.00,,---,0.00,VWS V14.00,2013-02-11 10:05:00,
2013-02-11 00:10:00,72.1,65.9,30.23,ENE,60,1.0,9.0,81,0.00,,---,0.00,VWS V14.00,2013-02-11 10:10:00,
2013-02-11 00:15:00,72.1,66.3,30.22,NE,52,4.0,11.0,82,0.00,,---,0.00,VWS V14.00,2013-02-11 10:15:00,
2013-02-11 00:20:00,72.0,65.9,30.22,NE,42,9.0,12.0,81,0.00,,---,0.00,VWS V14.00,2013-02-11 10:20:00,
2013-02-11 00:25:00,71.9,65.8,30.22,ENE,70,3.0,12.0,81,0.00,,---,0.00,VWS V14.00,2013-02-11 10:25:00,
2013-02-11 00:30:00,71.9,65.8,30.22,NE,55,2.0,12.0,81,0.00,,---,0.00,VWS V14.00,2013-02-11 10:30:00,
2013-02-11 00:35:00,71.9,65.8,30.22,NE,49,4.0,6.0,81,0.00,,---,0.00,VWS V14.00,2013-02-11 10:35:00,
2013-02-11 00:40:00,71.9,65.8,30.22,NE,53,2.0,6.0,81,0.00,,---,0.00,VWS V14.00,2013-02-11 10:40:00,
2013-02-11 00:45:00,71.8,65.7,30.22,NE,45,7.0,10.0,81,0.00,,---,0.00,VWS V14.00,2013-02-11 10:45:00,
2013-02-11 00:50:00,71.8,65.7,30.22,NE,51,3.0,10.0,81,0.00,,---,0.00,VWS V14.00,2013-02-11 10:50:00,
2013-02-11 00:55:00,71.9,65.8,30.22,ENE,57,1.0,10.0,81,0.00,,---,0.00,VWS V14.00,2013-02-11 10:55:00,
2013-02-11 01:00:00,71.9,65.8,30.22,NE,48,1.0,10.0,81,0.00,,---,0.00,VWS V14.00,2013-02-11 11:00:00,
2013-02-11 01:05:00,71.7,65.2,30.22,NE,42,4.0,9.0,80,0.00,,---,0.00,VWS V14.00,2013-02-11 11:05:00,
2013-02-11 01:10:00,71.8,65.3,30.22,North,355,0.0,9.0,80,0.00,,---,0.00,VWS V14.00,2013-02-11 11:10:00,
2013-02-11 01:15:00,71.8,65.7,30.21,NE,48,1.0,9.0,81,0.00,,---,0.00,VWS V14.00,2013-02-11 11:15:00,
2013-02-11 01:20:00,71.9,65.8,30.22,NE,48,3.0,9.0,81,0.00,,---,0.00,VWS V14.00,2013-02-11 11:20:00,
2013-02-11 01:25:00,71.7,65.6,30.21,NE,38,1.0,9.0,81,0.00,,---,0.00,VWS V14.00,2013-02-11 11:25:00,
2013-02-11 01:30:00,71.7,65.2,30.21,NE,36,2.0,9.0,80,0.00,,---,0.00,VWS V14.00,2013-02-11 11:30:00,
2013-02-11 01:35:00,71.7,65.2,30.21,NE,43,4.0,6.0,80,0.00,,---,0.00,VWS V14.00,2013-02-11 11:35:00,
2013-02-11 01:40:00,71.6,65.1,30.21,NE,46,3.0,6.0,80,0.00,,---,0.00,VWS V14.00,2013-02-11 11:40:00,
2013-02-11 01:45:00,71.6,65.1,30.21,NE,46,2.0,6.0,80,0.00,,---,0.00,VWS V14.00,2013-02-11 11:45:00,
2013-02-11 01:50:00,71.5,65.0,30.21,NE,46,4.0,6.0,80,0.00,,---,0.00,VWS V14.00,2013-02-11 11:50:00,
2013-02-11 01:55:00,71.5,65.0,30.21,NE,53,2.0,6.0,80,0.00,,---,0.00,VWS V14.00,2013-02-11 11:55:00,
2013-02-11 02:00:00,71.5,65.0,30.20,NE,53,3.0,6.0,80,0.00,,---,0.00,VWS V14.00,2013-02-11 12:00:00,
2013-02-11 02:05:00,71.6,65.5,30.20,ENE,73,3.0,5.0,81,0.00,,---,0.00,VWS V14.00,2013-02-11 12:05:00,
2013-02-11 02:10:00,71.7,65.2,30.20,East,92,2.0,11.0,80,0.00,,---,0.00,VWS V14.00,2013-02-11 12:10:00,
2013-02-11 02:15:00,71.8,65.7,30.20,NNE,24,3.0,11.0,81,0.00,,---,0.00,VWS V14.00,2013-02-11 12:15:00,
2013-02-11 02:20:00,71.8,65.7,30.20,East,88,4.0,11.0,81,0.00,,---,0.00,VWS V14.00,2013-02-11 12:20:00,
2013-02-11 02:25:00,71.6,64.8,30.20,East,79,2.0,11.0,79,0.00,,---,0.00,VWS V14.00,2013-02-11 12:25:00,
2013-02-11 02:30:00,71.4,64.9,30.20,NE,38,1.0,12.0,80,0.00,,---,0.00,VWS V14.00,2013-02-11 12:30:00,
2013-02-11 02:35:00,71.3,65.2,30.20,NE,55,6.0,8.0,81,0.00,,---,0.00,VWS V14.00,2013-02-11 12:35:00,
2013-02-11 02:40:00,71.4,65.6,30.20,NE,50,3.0,8.0,82,0.00,,---,0.00,VWS V14.00,2013-02-11 12:40:00,
2013-02-11 02:45:00,71.3,65.2,30.20,ENE,68,2.0,8.0,81,0.00,,---,0.00,VWS V14.00,2013-02-11 12:45:00,
2013-02-11 02:50:00,71.4,65.3,30.19,NE,53,3.0,8.0,81,0.00,,---,0.00,VWS V14.00,2013-02-11 12:50:00,
2013-02-11 02:55:00,71.4,65.3,30.19,NE,53,3.0,8.0,81,0.00,,---,0.00,VWS V14.00,2013-02-11 12:55:00,
2013-02-11 03:00:00,71.3,65.2,30.19,NE,53,1.0,10.0,81,0.00,,---,0.00,VWS V14.00,2013-02-11 13:00:00,
2013-02-11 03:05:00,71.4,65.6,30.19,NE,53,0.0,2.0,82,0.00,,---,0.00,VWS V14.00,2013-02-11 13:05:00,
2013-02-11 03:10:00,71.3,65.5,30.19,NE,53,3.0,10.0,82,0.00,,---,0.00,VWS V14.00,2013-02-11 13:10:00,
2013-02-11 03:15:00,71.3,65.5,30.18,ENE,59,2.0,12.0,82,0.00,,---,0.00,VWS V14.00,2013-02-11 13:15:00,
2013-02-11 03:20:00,71.3,65.2,30.18,ENE,59,2.0,12.0,81,0.00,,---,0.00,VWS V14.00,2013-02-11 13:20:00,
2013-02-11 03:25:00,71.3,65.5,30.18,ENE,63,3.0,12.0,82,0.00,,---,0.00,VWS V14.00,2013-02-11 13:25:00,
2013-02-11 03:30:00,71.2,65.1,30.18,ENE,59,3.0,12.0,81,0.00,,---,0.00,VWS V14.00,2013-02-11 13:30:00,
2013-02-11 03:35:00,71.3,65.5,30.18,ENE,60,1.0,8.0,82,0.00,,---,0.00,VWS V14.00,2013-02-11 13:35:00,
2013-02-11 03:40:00,71.4,65.6,30.18,NE,36,4.0,9.0,82,0.00,,---,0.00,VWS V14.00,2013-02-11 13:40:00,
2013-02-11 03:45:00,71.4,65.6,30.18,ENE,59,0.0,9.0,82,0.00,,---,0.00,VWS V14.00,2013-02-11 13:45:00,
2013-02-11 03:50:00,71.4,65.6,30.18,ENE,57,3.0,9.0,82,0.00,,---,0.00,VWS V14.00,2013-02-11 13:50:00,
2013-02-11 03:55:00,71.4,65.3,30.18,ENE,60,3.0,14.0,81,0.00,,---,0.00,VWS V14.00,2013-02-11 13:55:00,
2013-02-11 04:00:00,71.5,65.7,30.18,NNE,28,2.0,14.0,82,0.00,,---,0.00,VWS V14.00,2013-02-11 14:00:00,
2013-02-11 04:05:00,71.5,65.7,30.18,NE,37,4.0,8.0,82,0.00,,---,0.00,VWS V14.00,2013-02-11 14:05:00,
2013-02-11 04:10:00,71.5,65.7,30.18,NE,45,4.0,8.0,82,0.00,,---,0.00,VWS V14.00,2013-02-11 14:10:00,
2013-02-11 04:15:00,71.5,65.7,30.18,NE,55,5.0,11.0,82,0.00,,---,0.00,VWS V14.00,2013-02-11 14:15:00,
2013-02-11 04:20:00,71.5,65.7,30.17,North,360,6.0,13.0,82,0.00,,---,0.00,VWS V14.00,2013-02-11 14:20:00,
2013-02-11 04:25:00,71.5,65.7,30.18,ENE,58,2.0,13.0,82,0.00,,---,0.00,VWS V14.00,2013-02-11 14:25:00,
2013-02-11 04:30:00,71.4,65.6,30.18,ENE,67,4.0,13.0,82,0.00,,---,0.00,VWS V14.00,2013-02-11 14:30:00,
2013-02-11 04:35:00,71.3,65.5,30.17,NNE,20,9.0,12.0,82,0.00,,---,0.00,VWS V14.00,2013-02-11 14:35:00,
2013-02-11 04:40:00,71.3,65.5,30.17,ENE,78,6.0,12.0,82,0.00,,---,0.00,VWS V14.00,2013-02-11 14:40:00,
2013-02-11 04:45:00,71.3,65.5,30.17,NE,49,4.0,12.0,82,0.00,,---,0.00,VWS V14.00,2013-02-11 14:45:00,
2013-02-11 04:50:00,71.3,65.5,30.17,NE,48,5.0,12.0,82,0.00,,---,0.00,VWS V14.00,2013-02-11 14:50:00,
2013-02-11 04:55:00,71.3,65.5,30.17,NE,51,7.0,12.0,82,0.00,,---,0.00,VWS V14.00,2013-02-11 14:55:00,
2013-02-11 05:00:00,71.4,66.0,30.17,NE,48,6.0,12.0,83,0.00,,---,0.00,VWS V14.00,2013-02-11 15:00:00,
2013-02-11 05:05:00,71.3,65.9,30.17,NE,40,6.0,9.0,83,0.00,,---,0.00,VWS V14.00,2013-02-11 15:05:00,
2013-02-11 05:10:00,71.3,65.5,30.17,NE,34,3.0,9.0,82,0.00,,---,0.00,VWS V14.00,2013-02-11 15:10:00,
2013-02-11 05:15:00,71.3,65.5,30.17,NE,48,1.0,13.0,82,0.00,,---,0.00,VWS V14.00,2013-02-11 15:15:00,
2013-02-11 05:20:00,71.4,66.0,30.17,NE,36,3.0,13.0,83,0.00,,---,0.00,VWS V14.00,2013-02-11 15:20:00,
2013-02-11 05:25:00,71.5,66.1,30.18,NE,51,4.0,13.0,83,0.00,,---,0.00,VWS V14.00,2013-02-11 15:25:00,
2013-02-11 05:30:00,71.2,65.8,30.18,NE,55,3.0,13.0,83,0.00,,---,0.00,VWS V14.00,2013-02-11 15:30:00,
2013-02-11 05:35:00,71.2,66.1,30.18,NE,54,3.0,6.0,84,0.00,,---,0.00,VWS V14.00,2013-02-11 15:35:00,
2013-02-11 05:40:00,71.1,66.0,30.18,NE,54,4.0,8.0,84,0.00,,---,0.00,VWS V14.00,2013-02-11 15:40:00,
2013-02-11 05:45:00,71.0,65.9,30.18,NE,55,3.0,8.0,84,0.00,,---,0.00,VWS V14.00,2013-02-11 15:45:00,
2013-02-11 05:50:00,71.0,65.6,30.18,East,88,3.0,8.0,83,0.00,,---,0.00,VWS V14.00,2013-02-11 15:50:00,
2013-02-11 05:55:00,71.0,65.6,30.18,ENE,74,4.0,8.0,83,0.00,,---,0.00,VWS V14.00,2013-02-11 15:55:00,
2013-02-11 06:00:00,71.1,65.7,30.18,NE,47,0.0,8.0,83,0.00,,---,0.00,VWS V14.00,2013-02-11 16:00:00,
2013-02-11 06:05:00,71.0,65.6,30.19,ENE,58,5.0,6.0,83,0.00,,---,0.00,VWS V14.00,2013-02-11 16:05:00,
2013-02-11 06:10:00,70.8,65.4,30.19,NE,55,1.0,11.0,83,0.00,,---,0.00,VWS V14.00,2013-02-11 16:10:00,
2013-02-11 06:15:00,70.8,65.4,30.19,ENE,59,2.0,11.0,83,0.00,,---,0.00,VWS V14.00,2013-02-11 16:15:00,
2013-02-11 06:20:00,70.9,65.5,30.19,ENE,77,1.0,13.0,83,0.00,,---,0.00,VWS V14.00,2013-02-11 16:20:00,
2013-02-11 06:25:00,71.0,65.6,30.19,ENE,60,5.0,13.0,83,0.00,,---,0.00,VWS V14.00,2013-02-11 16:25:00,
2013-02-11 06:30:00,71.2,65.8,30.19,ENE,60,12.0,13.0,83,0.00,,---,0.00,VWS V14.00,2013-02-11 16:30:00,
2013-02-11 06:35:00,70.9,65.5,30.19,ENE,64,3.0,11.0,83,0.00,,---,0.00,VWS V14.00,2013-02-11 16:35:00,
2013-02-11 06:40:00,70.9,65.5,30.20,ENE,59,13.0,19.0,83,0.00,,---,0.00,VWS V14.00,2013-02-11 16:40:00,
2013-02-11 06:45:00,71.0,65.6,30.20,NE,54,3.0,19.0,83,0.00,,---,0.00,VWS V14.00,2013-02-11 16:45:00,
2013-02-11 06:50:00,71.0,65.6,30.20,East,94,1.0,19.0,83,0.00,,---,0.00,VWS V14.00,2013-02-11 16:50:00,
2013-02-11 06:55:00,71.0,65.6,30.20,ENE,63,1.0,19.0,83,0.00,,---,0.00,VWS V14.00,2013-02-11 16:55:00,
2013-02-11 07:00:00,71.0,65.9,30.20,East,86,2.0,19.0,84,0.00,,---,0.00,VWS V14.00,2013-02-11 17:00:00,
2013-02-11 07:05:00,70.8,65.4,30.20,ENE,69,1.0,10.0,83,0.00,,---,0.00,VWS V14.00,2013-02-11 17:05:00,
2013-02-11 07:10:00,70.8,65.4,30.21,ENE,76,1.0,11.0,83,0.00,,---,0.00,VWS V14.00,2013-02-11 17:10:00,
2013-02-11 07:15:00,70.7,65.3,30.21,NNE,17,4.0,11.0,83,0.00,,---,0.00,VWS V14.00,2013-02-11 17:15:00,
2013-02-11 07:20:00,70.8,65.4,30.21,NE,43,3.0,14.0,83,0.00,,---,0.00,VWS V14.00,2013-02-11 17:20:00,
2013-02-11 07:25:00,70.8,65.4,30.21,ENE,77,3.0,14.0,83,0.00,,---,0.00,VWS V14.00,2013-02-11 17:25:00,
2013-02-11 07:30:00,71.0,65.6,30.21,NE,51,3.0,16.0,83,0.00,,---,0.00,VWS V14.00,2013-02-11 17:30:00,
2013-02-11 07:35:00,70.8,65.4,30.22,NNE,20,4.0,7.0,83,0.00,,---,0.00,VWS V14.00,2013-02-11 17:35:00,
2013-02-11 07:40:00,70.8,65.4,30.22,East,79,4.0,9.0,83,0.00,,---,0.00,VWS V14.00,2013-02-11 17:40:00,
2013-02-11 07:45:00,71.0,65.9,30.22,NNE,13,3.0,13.0,84,0.00,,---,0.00,VWS V14.00,2013-02-11 17:45:00,
2013-02-11 07:50:00,70.8,65.7,30.22,ENE,58,4.0,13.0,84,0.00,,---,0.00,VWS V14.00,2013-02-11 17:50:00,
2013-02-11 07:55:00,70.4,65.0,30.22,East,87,5.0,13.0,83,0.00,,---,0.00,VWS V14.00,2013-02-11 17:55:00,
2013-02-11 08:00:00,70.4,65.0,30.22,ENE,69,1.0,13.0,83,0.00,,---,0.00,VWS V14.00,2013-02-11 18:00:00,
2013-02-11 08:05:00,70.8,65.7,30.22,ENE,57,4.0,7.0,84,0.00,,---,0.00,VWS V14.00,2013-02-11 18:05:00,
2013-02-11 08:10:00,71.0,65.9,30.22,ENE,65,2.0,10.0,84,0.00,,---,0.00,VWS V14.00,2013-02-11 18:10:00,
2013-02-11 08:15:00,71.2,66.1,30.22,NE,52,5.0,10.0,84,0.00,,---,0.00,VWS V14.00,2013-02-11 18:15:00,
2013-02-11 08:20:00,71.2,65.8,30.22,NE,46,0.0,10.0,83,0.00,,---,0.00,VWS V14.00,2013-02-11 18:20:00,
2013-02-11 08:25:00,71.3,65.9,30.22,NE,38,2.0,12.0,83,0.00,,---,0.00,VWS V14.00,2013-02-11 18:25:00,
2013-02-11 08:30:00,71.4,66.0,30.22,NE,39,4.0,13.0,83,0.00,,---,0.00,VWS V14.00,2013-02-11 18:30:00,
2013-02-11 08:35:00,71.3,65.5,30.22,ENE,75,7.0,8.0,82,0.00,,---,0.00,VWS V14.00,2013-02-11 18:35:00,
2013-02-11 08:40:00,71.4,65.6,30.22,ENE,62,5.0,13.0,82,0.00,,---,0.00,VWS V14.00,2013-02-11 18:40:00,
2013-02-11 08:45:00,71.4,66.0,30.22,NE,51,2.0,13.0,83,0.21,,---,0.02,VWS V14.00,2013-02-11 18:45:00,
2013-02-11 08:50:00,71.2,66.1,30.22,NE,54,0.0,13.0,84,0.08,,---,0.02,VWS V14.00,2013-02-11 18:50:00,
2013-02-11 08:55:00,71.0,66.3,30.22,ENE,60,7.0,13.0,85,0.05,,---,0.02,VWS V14.00,2013-02-11 18:55:00,
2013-02-11 09:00:00,70.7,66.0,30.22,North,355,6.0,13.0,85,0.00,,---,0.02,VWS V14.00,2013-02-11 19:00:00,
2013-02-11 09:05:00,70.6,65.9,30.22,ESE,117,6.0,6.0,85,0.00,,---,0.02,VWS V14.00,2013-02-11 19:05:00,
2013-02-11 09:10:00,70.8,66.4,30.22,NNE,20,3.0,11.0,86,0.00,,---,0.02,VWS V14.00,2013-02-11 19:10:00,
2013-02-11 09:15:00,70.6,65.9,30.23,ENE,72,1.0,11.0,85,0.00,,---,0.02,VWS V14.00,2013-02-11 19:15:00,
2013-02-11 09:20:00,70.7,66.0,30.22,ENE,72,0.0,11.0,85,0.00,,---,0.02,VWS V14.00,2013-02-11 19:20:00,
2013-02-11 09:25:00,70.8,66.4,30.23,East,86,4.0,18.0,86,0.00,,---,0.02,VWS V14.00,2013-02-11 19:25:00,
2013-02-11 09:30:00,70.7,66.3,30.23,East,98,2.0,18.0,86,0.00,,---,0.02,VWS V14.00,2013-02-11 19:30:00,
2013-02-11 09:35:00,70.7,66.3,30.23,NE,35,4.0,9.0,86,0.00,,---,0.02,VWS V14.00,2013-02-11 19:35:00,
2013-02-11 09:40:00,71.0,66.3,30.22,NNE,21,1.0,10.0,85,0.00,,---,0.02,VWS V14.00,2013-02-11 19:40:00,
2013-02-11 09:45:00,71.4,66.7,30.23,NNE,22,1.0,10.0,85,0.00,,---,0.02,VWS V14.00,2013-02-11 19:45:00,
2013-02-11 09:50:00,72.2,67.4,30.23,ESE,122,6.0,10.0,85,0.00,,---,0.02,VWS V14.00,2013-02-11 19:50:00,
2013-02-11 09:55:00,72.6,67.2,30.23,ENE,76,0.0,15.0,83,0.00,,---,0.02,VWS V14.00,2013-02-11 19:55:00,
2013-02-11 10:00:00,73.1,67.3,30.23,NNE,19,7.0,15.0,82,0.00,,---,0.02,VWS V14.00,2013-02-11 20:00:00,
2013-02-11 10:05:00,73.2,66.7,30.23,North,5,1.0,16.0,80,0.00,,---,0.02,VWS V14.00,2013-02-11 20:05:00,
2013-02-11 10:10:00,73.3,66.8,30.23,NNW,345,1.0,16.0,80,0.00,,---,0.02,VWS V14.00,2013-02-11 20:10:00,
2013-02-11 10:15:00,73.5,66.2,30.23,NE,40,4.0,16.0,78,0.00,,---,0.02,VWS V14.00,2013-02-11 20:15:00,
2013-02-11 10:20:00,73.6,66.3,30.23,NE,46,3.0,16.0,78,0.00,,---,0.02,VWS V14.00,2013-02-11 20:20:00,
2013-02-11 10:25:00,73.7,66.1,30.23,East,83,8.0,16.0,77,0.00,,---,0.02,VWS V14.00,2013-02-11 20:25:00,
2013-02-11 10:30:00,73.8,66.2,30.23,ENE,66,3.0,16.0,77,0.00,,---,0.02,VWS V14.00,2013-02-11 20:30:00,
2013-02-11 10:35:00,73.9,66.2,30.23,North,355,2.0,7.0,77,0.00,,---,0.02,VWS V14.00,2013-02-11 20:35:00,
2013-02-11 10:40:00,74.2,66.9,30.23,ENE,66,5.0,8.0,78,0.00,,---,0.02,VWS V14.00,2013-02-11 20:40:00,
2013-02-11 10:45:00,73.8,66.9,30.23,NNE,28,10.0,13.0,79,0.00,,---,0.02,VWS V14.00,2013-02-11 20:45:00,
2013-02-11 10:50:00,73.1,66.6,30.23,NNE,23,2.0,13.0,80,0.00,,---,0.02,VWS V14.00,2013-02-11 20:50:00,
2013-02-11 10:55:00,72.8,66.6,30.23,ESE,108,2.0,15.0,81,0.00,,---,0.02,VWS V14.00,2013-02-11 20:55:00,
2013-02-11 11:00:00,73.3,66.8,30.23,NNW,345,1.0,15.0,80,0.00,,---,0.02,VWS V14.00,2013-02-11 21:00:00,
2013-02-11 11:05:00,73.9,67.0,30.23,NE,55,2.0,6.0,79,0.00,,---,0.02,VWS V14.00,2013-02-11 21:05:00,
2013-02-11 11:10:00,74.3,66.6,30.23,NE,49,5.0,7.0,77,0.00,,---,0.02,VWS V14.00,2013-02-11 21:10:00,
2013-02-11 11:15:00,74.1,66.4,30.22,NNE,19,5.0,13.0,77,0.00,,---,0.02,VWS V14.00,2013-02-11 21:15:00,
2013-02-11 11:20:00,74.1,66.8,30.22,SE,132,8.0,13.0,78,0.00,,---,0.02,VWS V14.00,2013-02-11 21:20:00,
2013-02-11 11:25:00,73.9,67.0,30.22,SE,138,2.0,18.0,79,0.00,,---,0.02,VWS V14.00,2013-02-11 21:25:00,
2013-02-11 11:30:00,73.6,67.1,30.22,ESE,103,1.0,18.0,80,0.00,,---,0.02,VWS V14.00,2013-02-11 21:30:00,
2013-02-11 11:35:00,73.5,67.3,30.22,ESE,121,4.0,8.0,81,0.00,,---,0.02,VWS V14.00,2013-02-11 21:35:00,
2013-02-11 11:40:00,73.4,67.6,30.22,SE,128,0.0,9.0,82,0.51,,---,0.04,VWS V14.00,2013-02-11 21:40:00,
2013-02-11 11:45:00,72.9,67.1,30.22,ENE,64,6.0,9.0,82,0.17,,---,0.05,VWS V14.00,2013-02-11 21:45:00,
2013-02-11 11:50:00,72.3,67.2,30.22,ENE,60,7.0,10.0,84,0.08,,---,0.05,VWS V14.00,2013-02-11 21:50:00,
2013-02-11 11:55:00,72.2,67.4,30.21,NE,44,1.0,10.0,85,0.05,,---,0.05,VWS V14.00,2013-02-11 21:55:00,
2013-02-11 12:00:00,72.0,66.9,30.21,NE,34,8.0,11.0,84,0.00,,---,0.05,VWS V14.00,2013-02-11 22:00:00,
2013-02-11 12:05:00,71.7,66.9,30.21,NE,34,3.0,11.0,85,0.00,,---,0.05,VWS V14.00,2013-02-11 22:05:00,
2013-02-11 12:10:00,71.7,66.6,30.21,NE,49,3.0,11.0,84,0.00,,---,0.05,VWS V14.00,2013-02-11 22:10:00,
2013-02-11 12:15:00,71.6,66.5,30.21,ENE,70,7.0,11.0,84,0.00,,---,0.05,VWS V14.00,2013-02-11 22:15:00,
2013-02-11 12:20:00,71.5,66.8,30.21,NE,52,5.0,15.0,85,0.00,,---,0.06,VWS V14.00,2013-02-11 22:20:00,
2013-02-11 12:25:00,71.1,66.7,30.21,NE,40,4.0,18.0,86,0.16,,---,0.07,VWS V14.00,2013-02-11 22:25:00,
2013-02-11 12:30:00,70.7,66.3,30.21,ENE,76,15.0,18.0,86,0.07,,---,0.07,VWS V14.00,2013-02-11 22:30:00,
2013-02-11 12:35:00,70.7,66.3,30.21,North,10,5.0,17.0,86,0.04,,---,0.07,VWS V14.00,2013-02-11 22:35:00,
2013-02-11 12:40:00,71.1,66.7,30.21,ENE,71,2.0,17.0,86,0.00,,---,0.07,VWS V14.00,2013-02-11 22:40:00,
2013-02-11 12:45:00,71.2,66.1,30.20,NE,55,12.0,17.0,84,0.00,,---,0.07,VWS V14.00,2013-02-11 22:45:00,
2013-02-11 12:50:00,71.2,66.1,30.20,ENE,60,5.0,17.0,84,0.00,,---,0.07,VWS V14.00,2013-02-11 22:50:00,
2013-02-11 12:55:00,71.3,65.9,30.19,ENE,63,5.0,17.0,83,0.00,,---,0.07,VWS V14.00,2013-02-11 22:55:00,
2013-02-11 13:00:00,71.3,65.5,30.20,East,80,5.0,17.0,82,0.00,,---,0.07,VWS V14.00,2013-02-11 23:00:00,
2013-02-11 13:05:00,71.3,65.5,30.19,ENE,65,6.0,12.0,82,0.00,,---,0.07,VWS V14.00,2013-02-11 23:05:00,
2013-02-11 13:10:00,71.4,66.0,30.19,ENE,62,5.0,12.0,83,0.00,,---,0.07,VWS V14.00,2013-02-11 23:10:00,
2013-02-11 13:15:00,71.5,65.7,30.19,ENE,67,5.0,13.0,82,0.00,,---,0.07,VWS V14.00,2013-02-11 23:15:00,
2013-02-11 13:20:00,71.6,65.5,30.18,ENE,74,6.0,14.0,81,0.00,,---,0.07,VWS V14.00,2013-02-11 23:20:00,
2013-02-11 13:25:00,71.7,65.6,30.18,NE,47,4.0,15.0,81,0.00,,---,0.07,VWS V14.00,2013-02-11 23:25:00,
2013-02-11 13:30:00,71.7,65.2,30.18,North,5,7.0,15.0,80,0.00,,---,0.07,VWS V14.00,2013-02-11 23:30:00,
2013-02-11 13:35:00,71.7,65.2,30.18,NNE,12,6.0,11.0,80,0.00,,---,0.07,VWS V14.00,2013-02-11 23:35:00,
2013-02-11 13:40:00,71.7,64.8,30.17,NE,44,6.0,12.0,79,0.00,,---,0.07,VWS V14.00,2013-02-11 23:40:00,
2013-02-11 13:45:00,71.7,64.8,30.17,NE,48,3.0,12.0,79,0.00,,---,0.07,VWS V14.00,2013-02-11 23:45:00,
2013-02-11 13:50:00,71.8,64.9,30.17,ENE,69,4.0,12.0,79,0.00,,---,0.07,VWS V14.00,2013-02-11 23:50:00,
2013-02-11 13:55:00,71.9,65.4,30.17,NNE,29,4.0,13.0,80,0.00,,---,0.07,VWS V14.00,2013-02-11 23:55:00,
2013-02-11 14:00:00,71.7,65.2,30.17,East,101,5.0,13.0,80,0.00,,---,0.07,VWS V14.00,2013-02-12 00:00:00,
2013-02-11 14:05:00,71.5,65.0,30.17,ENE,59,5.0,13.0,80,0.00,,---,0.07,VWS V14.00,2013-02-12 00:05:00,
2013-02-11 14:10:00,71.5,65.0,30.17,ENE,73,3.0,13.0,80,0.00,,---,0.07,VWS V14.00,2013-02-12 00:10:00,
2013-02-11 14:15:00,71.3,64.8,30.17,NE,55,5.0,13.0,80,0.00,,---,0.07,VWS V14.00,2013-02-12 00:15:00,
2013-02-11 14:20:00,71.3,64.5,30.17,ENE,61,4.0,13.0,79,0.00,,---,0.07,VWS V14.00,2013-02-12 00:20:00,
2013-02-11 14:25:00,71.3,64.1,30.16,ENE,64,5.0,17.0,78,0.00,,---,0.07,VWS V14.00,2013-02-12 00:25:00,
2013-02-11 14:30:00,71.4,64.2,30.16,NNE,32,10.0,17.0,78,0.00,,---,0.07,VWS V14.00,2013-02-12 00:30:00,
2013-02-11 14:35:00,71.5,64.3,30.16,East,94,5.0,10.0,78,0.00,,---,0.07,VWS V14.00,2013-02-12 00:35:00,
2013-02-11 14:40:00,71.5,63.9,30.16,NE,54,4.0,12.0,77,0.00,,---,0.07,VWS V14.00,2013-02-12 00:40:00,
2013-02-11 14:45:00,71.6,64.4,30.16,NE,48,8.0,12.0,78,0.00,,---,0.07,VWS V14.00,2013-02-12 00:45:00,
2013-02-11 14:50:00,71.6,64.0,30.16,ENE,67,3.0,12.0,77,0.00,,---,0.07,VWS V14.00,2013-02-12 00:50:00,
2013-02-11 14:55:00,71.7,64.1,30.16,ENE,63,3.0,12.0,77,0.00,,---,0.07,VWS V14.00,2013-02-12 00:55:00,
2013-02-11 15:00:00,71.7,64.1,30.15,NE,55,4.0,12.0,77,0.00,,---,0.07,VWS V14.00,2013-02-12 01:00:00,
2013-02-11 15:05:00,71.8,64.6,30.15,NE,45,6.0,13.0,78,0.00,,---,0.07,VWS V14.00,2013-02-12 01:05:00,
2013-02-11 15:10:00,71.9,64.3,30.15,East,100,4.0,13.0,77,0.00,,---,0.07,VWS V14.00,2013-02-12 01:10:00,
2013-02-11 15:15:00,72.0,64.4,30.15,NE,52,6.0,13.0,77,0.00,,---,0.07,VWS V14.00,2013-02-12 01:15:00,
2013-02-11 15:20:00,71.9,64.3,30.15,NE,46,4.0,13.0,77,0.00,,---,0.07,VWS V14.00,2013-02-12 01:20:00,
2013-02-11 15:25:00,71.9,64.3,30.15,ENE,65,5.0,13.0,77,0.00,,---,0.07,VWS V14.00,2013-02-12 01:25:00,
2013-02-11 15:30:00,71.8,63.8,30.15,ENE,70,11.0,13.0,76,0.00,,---,0.07,VWS V14.00,2013-02-12 01:30:00,
2013-02-11 15:35:00,71.7,63.7,30.15,ENE,64,5.0,8.0,76,0.00,,---,0.07,VWS V14.00,2013-02-12 01:35:00,
2013-02-11 15:40:00,71.7,63.7,30.15,ENE,78,3.0,14.0,76,0.00,,---,0.07,VWS V14.00,2013-02-12 01:40:00,
2013-02-11 15:45:00,71.6,63.6,30.15,ENE,58,3.0,14.0,76,0.00,,---,0.07,VWS V14.00,2013-02-12 01:45:00,
2013-02-11 15:50:00,71.6,63.6,30.15,NE,55,4.0,14.0,76,0.00,,---,0.07,VWS V14.00,2013-02-12 01:50:00,
2013-02-11 15:55:00,71.5,63.5,30.15,NE,53,1.0,14.0,76,0.00,,---,0.07,VWS V14.00,2013-02-12 01:55:00,
2013-02-11 16:00:00,71.6,63.6,30.15,NE,50,3.0,14.0,76,0.00,,---,0.07,VWS V14.00,2013-02-12 02:00:00,
2013-02-11 16:05:00,71.6,63.6,30.15,ENE,69,6.0,10.0,76,0.00,,---,0.07,VWS V14.00,2013-02-12 02:05:00,
2013-02-11 16:10:00,71.6,63.6,30.15,North,5,3.0,10.0,76,0.00,,---,0.07,VWS V14.00,2013-02-12 02:10:00,
2013-02-11 16:15:00,71.7,63.7,30.15,NE,52,3.0,10.0,76,0.00,,---,0.07,VWS V14.00,2013-02-12 02:15:00,
2013-02-11 16:20:00,71.7,63.7,30.15,NE,40,2.0,12.0,76,0.00,,---,0.07,VWS V14.00,2013-02-12 02:20:00,
2013-02-11 16:25:00,71.8,63.8,30.15,East,96,2.0,12.0,76,0.00,,---,0.07,VWS V14.00,2013-02-12 02:25:00,
2013-02-11 16:30:00,71.7,63.7,30.15,ENE,65,7.0,12.0,76,0.00,,---,0.07,VWS V14.00,2013-02-12 02:30:00,
2013-02-11 16:35:00,71.6,63.3,30.15,North,360,4.0,8.0,75,0.00,,---,0.07,VWS V14.00,2013-02-12 02:35:00,
2013-02-11 16:40:00,71.5,63.2,30.15,ENE,67,6.0,14.0,75,0.00,,---,0.07,VWS V14.00,2013-02-12 02:40:00,
2013-02-11 16:45:00,71.5,62.8,30.15,ENE,59,5.0,14.0,74,0.00,,---,0.07,VWS V14.00,2013-02-12 02:45:00,
2013-02-11 16:50:00,71.5,63.2,30.15,ENE,67,3.0,14.0,75,0.00,,---,0.07,VWS V14.00,2013-02-12 02:50:00,
2013-02-11 16:55:00,71.5,63.2,30.15,ENE,74,6.0,14.0,75,0.00,,---,0.07,VWS V14.00,2013-02-12 02:55:00,
2013-02-11 17:00:00,71.6,63.3,30.16,ENE,69,4.0,15.0,75,0.00,,---,0.07,VWS V14.00,2013-02-12 03:00:00,
2013-02-11 17:05:00,71.6,63.3,30.15,NE,49,8.0,10.0,75,0.00,,---,0.07,VWS V14.00,2013-02-12 03:05:00,
2013-02-11 17:10:00,71.5,62.8,30.16,ENE,67,7.0,12.0,74,0.00,,---,0.07,VWS V14.00,2013-02-12 03:10:00,
2013-02-11 17:15:00,71.5,63.2,30.15,NE,43,3.0,12.0,75,0.00,,---,0.07,VWS V14.00,2013-02-12 03:15:00,
2013-02-11 17:20:00,71.5,63.2,30.16,NE,55,2.0,12.0,75,0.00,,---,0.07,VWS V14.00,2013-02-12 03:20:00,
2013-02-11 17:25:00,71.4,63.1,30.16,NE,49,8.0,12.0,75,0.00,,---,0.07,VWS V14.00,2013-02-12 03:25:00,
2013-02-11 17:30:00,71.4,62.7,30.16,NNW,333,4.0,14.0,74,0.00,,---,0.07,VWS V14.00,2013-02-12 03:30:00,
2013-02-11 17:35:00,71.4,62.7,30.16,ENE,58,2.0,8.0,74,0.00,,---,0.07,VWS V14.00,2013-02-12 03:35:00,
2013-02-11 17:40:00,71.5,63.2,30.16,ENE,61,11.0,11.0,75,0.00,,---,0.07,VWS V14.00,2013-02-12 03:40:00,
2013-02-11 17:45:00,71.5,63.2,30.16,NNE,29,5.0,13.0,75,0.00,,---,0.07,VWS V14.00,2013-02-12 03:45:00,
2013-02-11 17:50:00,71.4,63.5,30.16,NNE,21,3.0,15.0,76,0.00,,---,0.07,VWS V14.00,2013-02-12 03:50:00,
2013-02-11 17:55:00,71.3,63.0,30.17,NNW,339,5.0,15.0,75,0.00,,---,0.07,VWS V14.00,2013-02-12 03:55:00,
2013-02-11 18:00:00,71.3,63.0,30.17,NNW,348,6.0,15.0,75,0.00,,---,0.07,VWS V14.00,2013-02-12 04:00:00,
2013-02-11 18:05:00,71.3,63.0,30.17,ENE,67,2.0,10.0,75,0.00,,---,0.07,VWS V14.00,2013-02-12 04:05:00,
2013-02-11 18:10:00,71.3,63.0,30.17,NE,51,5.0,11.0,75,0.00,,---,0.07,VWS V14.00,2013-02-12 04:10:00,
2013-02-11 18:15:00,71.3,63.0,30.18,NE,52,14.0,17.0,75,0.00,,---,0.07,VWS V14.00,2013-02-12 04:15:00,
2013-02-11 18:20:00,71.3,63.0,30.18,NNE,24,5.0,17.0,75,0.00,,---,0.07,VWS V14.00,2013-02-12 04:20:00,
2013-02-11 18:25:00,71.4,63.1,30.18,NE,55,6.0,17.0,75,0.00,,---,0.07,VWS V14.00,2013-02-12 04:25:00,
2013-02-11 18:30:00,71.3,63.0,30.18,East,98,2.0,17.0,75,0.00,,---,0.07,VWS V14.00,2013-02-12 04:30:00,
2013-02-11 18:35:00,71.3,62.6,30.18,NE,54,5.0,10.0,74,0.00,,---,0.07,VWS V14.00,2013-02-12 04:35:00,
2013-02-11 18:40:00,71.4,62.7,30.18,NNE,13,8.0,10.0,74,0.00,,---,0.07,VWS V14.00,2013-02-12 04:40:00,
2013-02-11 18:45:00,71.4,63.1,30.18,ENE,72,2.0,10.0,75,0.00,,---,0.07,VWS V14.00,2013-02-12 04:45:00,
2013-02-11 18:50:00,71.3,62.6,30.18,NE,34,4.0,11.0,74,0.00,,---,0.07,VWS V14.00,2013-02-12 04:50:00,
2013-02-11 18:55:00,71.4,62.7,30.18,NNW,346,2.0,11.0,74,0.00,,---,0.07,VWS V14.00,2013-02-12 04:55:00,
2013-02-11 19:00:00,71.3,62.6,30.18,ESE,123,2.0,11.0,74,0.00,,---,0.07,VWS V14.00,2013-02-12 05:00:00,
2013-02-11 19:05:00,71.4,62.7,30.18,NNE,30,3.0,9.0,74,0.00,,---,0.07,VWS V14.00,2013-02-12 05:05:00,
2013-02-11 19:10:00,71.4,62.7,30.19,NE,39,6.0,11.0,74,0.00,,---,0.07,VWS V14.00,2013-02-12 05:10:00,
2013-02-11 19:15:00,71.4,63.1,30.19,NE,44,6.0,11.0,75,0.00,,---,0.07,VWS V14.00,2013-02-12 05:15:00,
2013-02-11 19:20:00,71.4,62.7,30.19,NNE,19,3.0,11.0,74,0.00,,---,0.07,VWS V14.00,2013-02-12 05:20:00,
2013-02-11 19:25:00,71.4,62.7,30.19,NE,56,2.0,11.0,74,0.00,,---,0.07,VWS V14.00,2013-02-12 05:25:00,
2013-02-11 19:30:00,71.4,63.1,30.19,NE,52,3.0,11.0,75,0.00,,---,0.07,VWS V14.00,2013-02-12 05:30:00,
2013-02-11 19:35:00,71.4,63.1,30.19,East,80,3.0,11.0,75,0.00,,---,0.07,VWS V14.00,2013-02-12 05:35:00,
2013-02-11 19:40:00,71.4,63.1,30.19,ENE,74,5.0,12.0,75,0.00,,---,0.07,VWS V14.00,2013-02-12 05:40:00,
2013-02-11 19:45:00,71.4,63.1,30.20,NE,51,4.0,12.0,75,0.00,,---,0.07,VWS V14.00,2013-02-12 05:45:00,
2013-02-11 19:50:00,71.4,63.1,30.20,ENE,57,5.0,13.0,75,0.00,,---,0.07,VWS V14.00,2013-02-12 05:50:00,
2013-02-11 19:55:00,71.4,62.7,30.20,ENE,59,7.0,13.0,74,0.00,,---,0.07,VWS V14.00,2013-02-12 05:55:00,
2013-02-11 20:00:00,71.4,63.1,30.20,ENE,75,5.0,13.0,75,0.00,,---,0.07,VWS V14.00,2013-02-12 06:00:00,
2013-02-11 20:05:00,71.4,62.7,30.20,ENE,70,6.0,13.0,74,0.00,,---,0.07,VWS V14.00,2013-02-12 06:05:00,
2013-02-11 20:10:00,71.4,63.1,30.20,NE,50,2.0,13.0,75,0.00,,---,0.07,VWS V14.00,2013-02-12 06:10:00,
2013-02-11 20:15:00,71.4,63.1,30.20,ENE,62,5.0,14.0,75,0.00,,---,0.07,VWS V14.00,2013-02-12 06:15:00,
2013-02-11 20:20:00,71.4,63.1,30.20,East,80,6.0,14.0,75,0.00,,---,0.07,VWS V14.00,2013-02-12 06:20:00,
2013-02-11 20:25:00,71.4,63.1,30.20,East,83,5.0,14.0,75,0.00,,---,0.07,VWS V14.00,2013-02-12 06:25:00,
2013-02-11 20:30:00,71.5,63.5,30.20,ENE,78,2.0,14.0,76,0.00,,---,0.07,VWS V14.00,2013-02-12 06:30:00,
2013-02-11 20:35:00,71.4,63.5,30.20,ENE,66,3.0,11.0,76,0.00,,---,0.07,VWS V14.00,2013-02-12 06:35:00,
2013-02-11 20:40:00,71.4,63.1,30.20,ENE,59,4.0,11.0,75,0.00,,---,0.07,VWS V14.00,2013-02-12 06:40:00,
2013-02-11 20:45:00,71.4,63.1,30.20,ENE,74,3.0,11.0,75,0.00,,---,0.07,VWS V14.00,2013-02-12 06:45:00,
2013-02-11 20:50:00,71.4,63.1,30.21,ENE,68,6.0,11.0,75,0.00,,---,0.07,VWS V14.00,2013-02-12 06:50:00,
2013-02-11 20:55:00,71.4,63.1,30.20,ENE,69,5.0,11.0,75,0.00,,---,0.07,VWS V14.00,2013-02-12 06:55:00,
2013-02-11 21:00:00,71.4,63.5,30.21,ENE,68,6.0,13.0,76,0.00,,---,0.07,VWS V14.00,2013-02-12 07:00:00,
2013-02-11 21:05:00,71.5,63.5,30.21,NE,52,3.0,6.0,76,0.00,,---,0.07,VWS V14.00,2013-02-12 07:05:00,
2013-02-11 21:10:00,71.4,63.5,30.22,ENE,59,6.0,13.0,76,0.00,,---,0.07,VWS V14.00,2013-02-12 07:10:00,
2013-02-11 21:15:00,71.4,63.5,30.22,East,86,4.0,14.0,76,0.00,,---,0.07,VWS V14.00,2013-02-12 07:15:00,
2013-02-11 21:20:00,71.4,63.1,30.22,NE,49,6.0,14.0,75,0.00,,---,0.07,VWS V14.00,2013-02-12 07:20:00,
2013-02-11 21:25:00,71.3,63.0,30.21,NE,46,6.0,16.0,75,0.00,,---,0.07,VWS V14.00,2013-02-12 07:25:00,
2013-02-11 21:30:00,71.4,63.1,30.22,ENE,74,6.0,16.0,75,0.00,,---,0.07,VWS V14.00,2013-02-12 07:30:00,
2013-02-11 21:35:00,71.4,62.7,30.22,NE,56,2.0,13.0,74,0.00,,---,0.07,VWS V14.00,2013-02-12 07:35:00,
2013-02-11 21:40:00,71.5,63.2,30.22,East,98,4.0,14.0,75,0.00,,---,0.07,VWS V14.00,2013-02-12 07:40:00,
2013-02-11 21:45:00,71.4,63.1,30.22,NE,40,7.0,14.0,75,0.00,,---,0.07,VWS V14.00,2013-02-12 07:45:00,
2013-02-11 21:50:00,71.3,63.0,30.22,NE,51,4.0,14.0,75,0.00,,---,0.07,VWS V14.00,2013-02-12 07:50:00,
2013-02-11 21:55:00,71.2,62.1,30.22,NE,40,4.0,14.0,73,0.00,,---,0.07,VWS V14.00,2013-02-12 07:55:00,
2013-02-11 22:00:00,71.2,62.5,30.22,NE,42,9.0,14.0,74,0.00,,---,0.07,VWS V14.00,2013-02-12 08:00:00,
2013-02-11 22:05:00,71.3,62.6,30.22,NNE,25,1.0,10.0,74,0.00,,---,0.07,VWS V14.00,2013-02-12 08:05:00,
2013-02-11 22:10:00,71.3,62.6,30.22,ENE,74,8.0,10.0,74,0.00,,---,0.07,VWS V14.00,2013-02-12 08:10:00,
2013-02-11 22:15:00,71.4,62.7,30.22,NE,55,3.0,18.0,74,0.00,,---,0.07,VWS V14.00,2013-02-12 08:15:00,
2013-02-11 22:20:00,71.4,63.1,30.22,NE,45,6.0,18.0,75,0.00,,---,0.07,VWS V14.00,2013-02-12 08:20:00,
2013-02-11 22:25:00,71.3,63.3,30.22,NNE,19,0.0,18.0,76,0.00,,---,0.07,VWS V14.00,2013-02-12 08:25:00,
2013-02-11 22:30:00,71.1,63.2,30.22,NE,52,0.0,18.0,76,0.00,,---,0.07,VWS V14.00,2013-02-12 08:30:00,
2013-02-11 22:35:00,71.0,63.1,30.22,ENE,65,4.0,7.0,76,0.00,,---,0.07,VWS V14.00,2013-02-12 08:35:00,
2013-02-11 22:40:00,71.1,63.2,30.23,NE,39,4.0,10.0,76,0.00,,---,0.07,VWS V14.00,2013-02-12 08:40:00,
2013-02-11 22:45:00,71.2,63.3,30.22,ENE,78,5.0,10.0,76,0.00,,---,0.07,VWS V14.00,2013-02-12 08:45:00,
2013-02-11 22:50:00,71.1,63.2,30.22,NE,49,2.0,12.0,76,0.00,,---,0.07,VWS V14.00,2013-02-12 08:50:00,
2013-02-11 22:55:00,71.1,62.8,30.22,NE,44,4.0,12.0,75,0.00,,---,0.07,VWS V14.00,2013-02-12 08:55:00,
2013-02-11 23:00:00,71.1,62.8,30.22,ENE,69,4.0,12.0,75,0.00,,---,0.07,VWS V14.00,2013-02-12 09:00:00,
2013-02-11 23:05:00,71.1,63.2,30.22,ENE,65,5.0,10.0,76,0.00,,---,0.07,VWS V14.00,2013-02-12 09:05:00,
2013-02-11 23:10:00,71.2,63.3,30.22,NNE,32,2.0,10.0,76,0.00,,---,0.07,VWS V14.00,2013-02-12 09:10:00,
2013-02-11 23:15:00,71.1,63.2,30.22,East,99,8.0,13.0,76,0.00,,---,0.07,VWS V14.00,2013-02-12 09:15:00,
2013-02-11 23:20:00,71.2,63.6,30.22,NNE,24,4.0,14.0,77,0.00,,---,0.07,VWS V14.00,2013-02-12 09:20:00,
2013-02-11 23:25:00,71.2,63.6,30.22,ENE,58,3.0,14.0,77,0.00,,---,0.07,VWS V14.00,2013-02-12 09:25:00,
2013-02-11 23:30:00,71.0,63.4,30.22,East,83,3.0,14.0,77,0.00,,---,0.07,VWS V14.00,2013-02-12 09:30:00,
2013-02-11 23:35:00,70.8,62.9,30.22,NE,47,7.0,13.0,76,0.00,,---,0.07,VWS V14.00,2013-02-12 09:35:00,
2013-02-11 23:40:00,70.8,62.9,30.22,ENE,78,2.0,15.0,76,0.00,,---,0.07,VWS V14.00,2013-02-12 09:40:00,
2013-02-11 23:45:00,70.9,63.0,30.22,ENE,63,2.0,15.0,76,0.00,,---,0.07,VWS V14.00,2013-02-12 09:45:00,
2013-02-11 23:50:00,70.9,63.0,30.22,SE,140,2.0,18.0,76,0.00,,---,0.07,VWS V14.00,2013-02-12 09:50:00,
2013-02-11 23:55:00,71.0,63.1,30.22,North,355,4.0,18.0,76,0.00,,---,0.07,VWS V14.00,2013-02-12 09:55:00,